createdAt,value
2022-08-03T00:00:56.445Z,72.60
2022-08-03T00:01:56.409Z,73.10
2022-08-03T00:02:56.469Z,73.00
2022-08-03T00:03:56.384Z,73.10
2022-08-03T00:04:56.380Z,73.00
2022-08-03T00:06:03.826Z,72.90
2022-08-03T00:06:56.366Z,72.90
2022-08-03T00:07:56.345Z,73.04
2022-08-03T00:08:56.337Z,74.55
2022-08-03T00:09:56.325Z,73.44
2022-08-03T00:10:56.359Z,73.74
2022-08-03T00:11:56.304Z,74.04
2022-08-03T00:12:56.298Z,73.64
2022-08-03T00:13:56.284Z,73.74
2022-08-03T00:14:56.278Z,74.35
2022-08-03T00:15:56.287Z,73.94
2022-08-03T00:16:56.255Z,75.05
2022-08-03T00:17:56.242Z,74.35
2022-08-03T00:18:56.240Z,73.64
2022-08-03T00:19:56.225Z,73.84
2022-08-03T00:20:56.240Z,74.04
2022-08-03T00:21:56.202Z,74.15
2022-08-03T00:22:56.194Z,74.55
2022-08-03T00:23:56.187Z,73.94
2022-08-03T00:24:56.179Z,74.15
2022-08-03T00:25:56.185Z,74.18
2022-08-03T00:26:56.161Z,74.08
2022-08-03T00:27:56.147Z,73.88
2022-08-03T00:28:56.140Z,74.48
2022-08-03T00:29:59.872Z,74.28
2022-08-03T00:30:56.142Z,74.38
2022-08-03T00:31:59.333Z,74.38
2022-08-03T00:32:56.097Z,75.18
2022-08-03T00:33:59.442Z,74.38
2022-08-03T00:34:57.938Z,74.28
2022-08-03T00:35:56.086Z,74.48
2022-08-03T00:36:56.055Z,74.28
2022-08-03T00:37:56.041Z,75.38
2022-08-03T00:38:56.036Z,74.68
2022-08-03T00:39:56.043Z,75.09
2022-08-03T00:40:56.055Z,74.08
2022-08-03T00:41:55.998Z,73.18
2022-08-03T00:42:55.995Z,74.38
2022-08-03T00:43:55.977Z,74.28
2022-08-03T00:44:55.972Z,74.18
2022-08-03T00:45:55.984Z,73.98
2022-08-03T00:46:55.957Z,73.78
2022-08-03T00:47:55.937Z,74.18
2022-08-03T00:48:55.997Z,74.18
2022-08-03T00:49:55.921Z,75.18
2022-08-03T00:50:55.936Z,74.88
2022-08-03T00:51:55.897Z,73.88
2022-08-03T00:52:55.888Z,74.28
2022-08-03T00:53:55.880Z,74.18
2022-08-03T00:54:55.872Z,73.88
2022-08-03T00:55:55.879Z,74.38
2022-08-03T00:57:00.218Z,74.58
2022-08-03T00:57:55.841Z,75.09
2022-08-03T00:58:55.828Z,74.78
2022-08-03T00:59:55.814Z,75.99
2022-08-03T01:00:55.952Z,74.88
2022-08-03T01:01:55.803Z,75.42
2022-08-03T01:02:55.790Z,74.92
2022-08-03T01:03:55.774Z,74.72
2022-08-03T01:04:55.776Z,75.12
2022-08-03T01:05:55.778Z,75.42
2022-08-03T01:06:55.746Z,74.62
2022-08-03T01:07:55.734Z,75.02
2022-08-03T01:08:55.727Z,75.12
2022-08-03T01:09:55.712Z,75.12
2022-08-03T01:10:55.731Z,75.22
2022-08-03T01:12:00.210Z,75.02
2022-08-03T01:12:55.695Z,75.32
2022-08-03T01:14:01.961Z,75.02
2022-08-03T01:14:55.665Z,75.02
2022-08-03T01:15:55.678Z,74.92
2022-08-03T01:16:55.639Z,75.42
2022-08-03T01:17:55.635Z,75.02
2022-08-03T01:18:55.623Z,76.03
2022-08-03T01:19:55.620Z,75.62
2022-08-03T01:20:55.629Z,75.32
2022-08-03T01:21:55.595Z,75.42
2022-08-03T01:22:55.607Z,75.02
2022-08-03T01:23:55.575Z,75.42
2022-08-03T01:24:55.572Z,75.12
2022-08-03T01:25:55.576Z,74.72
2022-08-03T01:26:55.541Z,75.52
2022-08-03T01:27:55.533Z,75.86
2022-08-03T01:28:55.520Z,76.03
2022-08-03T01:29:55.539Z,76.46
2022-08-03T01:30:55.498Z,76.16
2022-08-03T01:33:00.248Z,76.06
2022-08-03T01:33:06.668Z,75.46
2022-08-03T01:33:55.471Z,76.26
2022-08-03T01:34:55.481Z,76.46
2022-08-03T01:35:55.451Z,76.16
2022-08-03T01:36:55.445Z,76.76
2022-08-03T01:37:55.431Z,76.97
2022-08-03T01:38:55.418Z,76.26
2022-08-03T01:39:55.447Z,75.56
2022-08-03T01:40:55.396Z,76.67
2022-08-03T01:41:55.391Z,76.46
2022-08-03T01:42:55.377Z,76.76
2022-08-03T01:44:29.302Z,76.76
2022-08-03T01:44:55.362Z,76.97
2022-08-03T01:45:55.377Z,77.17
2022-08-03T01:46:55.336Z,76.76
2022-08-03T01:47:55.328Z,77.11
2022-08-03T01:48:55.378Z,77.00
2022-08-03T01:49:55.308Z,77.81
2022-08-03T01:50:55.319Z,77.91
2022-08-03T01:52:03.014Z,77.11
2022-08-03T01:52:55.282Z,77.11
2022-08-03T01:53:55.268Z,77.31
2022-08-03T01:54:55.258Z,77.61
2022-08-03T01:55:55.279Z,77.20
2022-08-03T01:56:55.235Z,77.20
2022-08-03T01:58:05.468Z,76.60
2022-08-03T01:58:55.222Z,76.90
2022-08-03T01:59:55.208Z,77.61
2022-08-03T02:00:55.355Z,77.50
2022-08-03T02:02:15.547Z,77.61
2022-08-03T02:02:55.179Z,76.30
2022-08-03T02:04:00.605Z,77.00
2022-08-03T02:04:55.156Z,77.11
2022-08-03T02:06:17.889Z,77.70
2022-08-03T02:07:07.021Z,77.61
2022-08-03T02:07:55.124Z,76.50
2022-08-03T02:08:55.113Z,77.40
2022-08-03T02:09:55.113Z,76.80
2022-08-03T02:10:55.115Z,76.50
2022-08-03T02:11:55.086Z,77.11
2022-08-03T02:12:55.070Z,77.40
2022-08-03T02:13:55.066Z,77.31
2022-08-03T02:14:55.049Z,77.61
2022-08-03T02:15:55.068Z,77.11
2022-08-03T02:16:55.028Z,77.20
2022-08-03T02:17:55.044Z,76.90
2022-08-03T02:18:55.009Z,77.31
2022-08-03T02:19:55.006Z,77.61
2022-08-03T02:20:55.012Z,77.00
2022-08-03T02:21:57.139Z,77.11
2022-08-03T02:22:54.976Z,77.91
2022-08-03T02:23:54.964Z,77.61
2022-08-03T02:24:54.948Z,77.61
2022-08-03T02:25:54.966Z,78.11
2022-08-03T02:26:54.926Z,77.70
2022-08-03T02:27:54.920Z,77.81
2022-08-03T02:28:54.905Z,77.95
2022-08-03T02:29:54.902Z,77.84
2022-08-03T02:30:54.909Z,78.25
2022-08-03T02:31:54.890Z,77.95
2022-08-03T02:32:54.867Z,78.31
2022-08-03T02:33:54.863Z,77.95
2022-08-03T02:34:54.847Z,77.64
2022-08-03T02:35:54.867Z,78.25
2022-08-03T02:36:54.824Z,78.25
2022-08-03T02:37:54.820Z,78.35
2022-08-03T02:38:54.803Z,78.75
2022-08-03T02:39:54.798Z,79.05
2022-08-03T02:40:54.806Z,78.45
2022-08-03T02:41:54.782Z,78.25
2022-08-03T02:42:54.765Z,78.96
2022-08-03T02:44:05.454Z,79.16
2022-08-03T02:44:54.744Z,79.05
2022-08-03T02:45:54.757Z,79.19
2022-08-03T02:46:54.720Z,78.99
2022-08-03T02:47:54.956Z,79.80
2022-08-03T02:48:54.751Z,79.69
2022-08-03T02:49:54.745Z,79.49
2022-08-03T02:50:54.704Z,79.49
2022-08-03T02:51:54.676Z,79.80
2022-08-03T02:52:54.660Z,79.90
2022-08-03T02:53:54.662Z,80.10
2022-08-03T02:54:54.644Z,80.40
2022-08-03T02:55:54.656Z,79.90
2022-08-03T02:56:54.622Z,81.01
2022-08-03T02:57:54.613Z,80.84
2022-08-03T02:58:54.599Z,80.60
2022-08-03T02:59:54.597Z,80.10
2022-08-03T03:00:54.711Z,80.04
2022-08-03T03:01:54.573Z,80.33
2022-08-03T03:02:54.560Z,79.93
2022-08-03T03:03:54.555Z,80.74
2022-08-03T03:05:01.363Z,81.24
2022-08-03T03:06:00.210Z,80.64
2022-08-03T03:06:54.524Z,81.24
2022-08-03T03:07:54.510Z,80.54
2022-08-03T03:08:59.461Z,80.33
2022-08-03T03:09:54.523Z,80.44
2022-08-03T03:10:55.417Z,80.64
2022-08-03T03:11:54.471Z,80.64
2022-08-03T03:12:54.459Z,81.04
2022-08-03T03:13:54.449Z,80.84
2022-08-03T03:14:54.752Z,80.44
2022-08-03T03:15:54.430Z,81.15
2022-08-03T03:16:57.691Z,79.83
2022-08-03T03:17:54.409Z,80.64
2022-08-03T03:18:54.422Z,80.74
2022-08-03T03:19:54.390Z,81.04
2022-08-03T03:20:54.397Z,80.44
2022-08-03T03:21:54.368Z,80.84
2022-08-03T03:22:54.357Z,80.94
2022-08-03T03:23:54.351Z,79.73
2022-08-03T03:24:54.337Z,80.74
2022-08-03T03:25:54.352Z,80.64
2022-08-03T03:26:54.315Z,79.53
2022-08-03T03:27:54.312Z,80.13
2022-08-03T03:28:54.293Z,80.64
2022-08-03T03:29:54.287Z,80.33
2022-08-03T03:30:54.296Z,80.74
2022-08-03T03:31:54.269Z,80.44
2022-08-03T03:32:54.251Z,80.74
2022-08-03T03:33:54.250Z,80.33
2022-08-03T03:34:54.234Z,80.44
2022-08-03T03:35:54.252Z,80.33
2022-08-03T03:36:54.211Z,79.63
2022-08-03T03:37:54.206Z,80.54
2022-08-03T03:38:54.190Z,80.33
2022-08-03T03:39:54.188Z,80.64
2022-08-03T03:40:54.199Z,80.13
2022-08-03T03:41:54.175Z,81.24
2022-08-03T03:42:54.148Z,79.53
2022-08-03T03:43:54.150Z,80.54
2022-08-03T03:44:54.128Z,81.35
2022-08-03T03:45:54.151Z,80.74
2022-08-03T03:46:54.110Z,80.44
2022-08-03T03:47:54.104Z,79.93
2022-08-03T03:48:54.138Z,80.84
2022-08-03T03:49:54.085Z,80.24
2022-08-03T03:50:54.094Z,80.24
2022-08-03T03:51:54.063Z,80.94
2022-08-03T03:52:54.052Z,80.84
2022-08-03T03:53:54.044Z,81.45
2022-08-03T03:54:57.562Z,80.84
2022-08-03T03:56:01.926Z,80.74
2022-08-03T03:56:54.011Z,81.15
2022-08-03T03:57:54.003Z,80.94
2022-08-03T03:58:53.986Z,79.93
2022-08-03T03:59:53.979Z,80.54
2022-08-03T04:00:54.200Z,80.94
2022-08-03T04:01:58.905Z,81.04
2022-08-03T04:02:53.950Z,81.45
2022-08-03T04:03:53.942Z,80.24
2022-08-03T04:04:53.931Z,80.54
2022-08-03T04:05:53.942Z,80.84
2022-08-03T04:06:53.902Z,80.64
2022-08-03T04:07:53.897Z,80.94
2022-08-03T04:08:53.883Z,81.15
2022-08-03T04:09:53.878Z,81.04
2022-08-03T04:10:53.885Z,80.64
2022-08-03T04:11:53.856Z,81.35
2022-08-03T04:12:53.842Z,80.84
2022-08-03T04:13:53.837Z,80.94
2022-08-03T04:14:53.822Z,81.45
2022-08-03T04:15:53.839Z,80.74
2022-08-03T04:16:53.801Z,80.24
2022-08-03T04:17:53.796Z,80.94
2022-08-03T04:18:53.780Z,80.24
2022-08-03T04:19:53.774Z,81.45
2022-08-03T04:20:53.785Z,80.74
2022-08-03T04:21:53.757Z,81.45
2022-08-03T04:22:53.738Z,81.24
2022-08-03T04:23:53.736Z,81.35
2022-08-03T04:24:53.725Z,81.45
2022-08-03T04:25:53.740Z,81.04
2022-08-03T04:26:53.700Z,80.94
2022-08-03T04:28:29.621Z,80.64
2022-08-03T04:28:53.684Z,80.94
2022-08-03T04:29:53.672Z,80.74
2022-08-03T04:30:53.691Z,80.74
2022-08-03T04:31:53.653Z,80.54
2022-08-03T04:32:53.637Z,80.74
2022-08-03T04:33:53.631Z,80.94
2022-08-03T04:34:53.615Z,81.15
2022-08-03T04:36:01.502Z,81.65
2022-08-03T04:36:53.601Z,80.33
2022-08-03T04:37:53.597Z,81.15
2022-08-03T04:38:53.576Z,81.75
2022-08-03T04:39:53.569Z,81.15
2022-08-03T04:40:53.581Z,80.24
2022-08-03T04:42:07.551Z,80.94
2022-08-03T04:42:53.540Z,81.15
2022-08-03T04:43:53.533Z,81.35
2022-08-03T04:44:56.544Z,81.45
2022-08-03T04:45:53.538Z,81.35
2022-08-03T04:46:53.498Z,80.84
2022-08-03T04:47:53.491Z,80.04
2022-08-03T04:48:53.522Z,80.84
2022-08-03T04:49:53.474Z,81.01
2022-08-03T04:50:53.484Z,80.30
2022-08-03T04:51:53.450Z,81.21
2022-08-03T04:52:53.434Z,81.41
2022-08-03T04:53:53.428Z,80.90
2022-08-03T04:54:53.416Z,81.10
2022-08-03T04:55:53.439Z,80.70
2022-08-03T04:56:53.393Z,80.80
2022-08-03T04:57:53.385Z,81.01
2022-08-03T04:58:53.373Z,80.90
2022-08-03T04:59:56.858Z,80.60
2022-08-03T05:00:53.383Z,80.60
2022-08-03T05:01:53.393Z,81.21
2022-08-03T05:02:53.331Z,80.30
2022-08-03T05:03:53.337Z,80.20
2022-08-03T05:04:53.349Z,80.10
2022-08-03T05:05:53.332Z,79.60
2022-08-03T05:06:54.996Z,79.69
2022-08-03T05:07:53.291Z,79.05
2022-08-03T05:08:53.273Z,79.66
2022-08-03T05:10:01.705Z,79.25
2022-08-03T05:10:53.281Z,79.66
2022-08-03T05:11:53.244Z,79.86
2022-08-03T05:12:53.230Z,78.55
2022-08-03T05:13:53.228Z,79.05
2022-08-03T05:14:53.211Z,80.26
2022-08-03T05:15:53.233Z,80.26
2022-08-03T05:16:53.191Z,78.91
2022-08-03T05:17:53.184Z,79.22
2022-08-03T05:18:53.171Z,79.62
2022-08-03T05:19:53.168Z,79.52
2022-08-03T05:20:53.175Z,79.62
2022-08-03T05:21:53.176Z,79.02
2022-08-03T05:22:53.128Z,78.91
2022-08-03T05:23:53.119Z,78.61
2022-08-03T05:24:53.107Z,78.91
2022-08-03T05:25:53.128Z,78.98
2022-08-03T05:26:53.112Z,79.18
2022-08-03T05:27:53.081Z,78.47
2022-08-03T05:28:53.069Z,77.87
2022-08-03T05:29:53.059Z,78.98
2022-08-03T05:30:53.075Z,78.07
2022-08-03T05:31:53.038Z,78.27
2022-08-03T05:32:53.036Z,78.07
2022-08-03T05:33:53.019Z,78.47
2022-08-03T05:34:53.016Z,77.43
2022-08-03T05:35:56.236Z,76.73
2022-08-03T05:36:52.999Z,77.94
2022-08-03T05:37:54.973Z,77.53
2022-08-03T05:38:52.972Z,78.84
2022-08-03T05:39:52.957Z,76.93
2022-08-03T05:41:20.348Z,78.00
2022-08-03T05:41:52.940Z,76.69
2022-08-03T05:42:52.928Z,77.70
2022-08-03T05:43:52.913Z,76.69
2022-08-03T05:44:52.912Z,76.56
2022-08-03T05:46:11.785Z,76.45
2022-08-03T05:46:52.897Z,76.45
2022-08-03T05:47:52.880Z,76.25
2022-08-03T05:48:52.901Z,75.21
2022-08-03T05:49:52.854Z,75.82
2022-08-03T05:50:52.879Z,75.51
2022-08-03T05:52:00.021Z,75.01
2022-08-03T05:52:52.833Z,74.98
2022-08-03T05:53:52.814Z,73.57
2022-08-03T05:54:56.138Z,75.38
2022-08-03T05:55:56.982Z,74.57
2022-08-03T05:56:52.816Z,73.44
2022-08-03T05:57:52.773Z,72.74
2022-08-03T05:58:52.771Z,73.64
2022-08-03T05:59:57.727Z,73.13
2022-08-03T06:00:52.754Z,73.20
2022-08-03T06:01:52.894Z,73.40
2022-08-03T06:02:52.726Z,73.40
2022-08-03T06:03:52.714Z,72.80
2022-08-03T06:04:52.713Z,71.46
2022-08-03T06:05:55.571Z,72.16
2022-08-03T06:06:52.715Z,73.07
2022-08-03T06:07:52.670Z,71.26
2022-08-03T06:08:52.666Z,70.43
2022-08-03T06:10:36.427Z,71.63
2022-08-03T06:10:52.649Z,71.23
2022-08-03T06:11:52.658Z,70.32
2022-08-03T06:12:52.632Z,70.93
2022-08-03T06:13:52.610Z,71.59
2022-08-03T06:14:52.603Z,71.00
2022-08-03T06:15:52.607Z,70.89
2022-08-03T06:16:52.608Z,70.76
2022-08-03T06:17:52.572Z,70.16
2022-08-03T06:18:52.563Z,70.83
2022-08-03T06:19:52.553Z,69.62
2022-08-03T06:20:52.597Z,69.19
2022-08-03T06:21:52.552Z,68.19
2022-08-03T06:23:00.241Z,67.56
2022-08-03T06:23:55.150Z,67.66
2022-08-03T06:24:53.800Z,68.93
2022-08-03T06:25:52.657Z,65.53
2022-08-03T06:26:52.507Z,65.33
2022-08-03T06:27:52.467Z,67.40
2022-08-03T06:28:54.192Z,64.30
2022-08-03T06:29:52.447Z,66.86
2022-08-03T06:30:52.443Z,65.97
2022-08-03T06:31:52.450Z,63.87
2022-08-03T06:32:52.685Z,63.27
2022-08-03T06:34:32.099Z,65.37
2022-08-03T06:34:52.408Z,65.17
2022-08-03T06:35:52.390Z,64.27
2022-08-03T06:36:52.981Z,65.14
2022-08-03T06:37:52.366Z,65.64
2022-08-03T06:38:52.369Z,64.84
2022-08-03T06:39:52.352Z,64.61
2022-08-03T06:40:52.340Z,65.20
2022-08-03T06:41:52.348Z,62.18
2022-08-03T06:42:52.327Z,62.18
2022-08-03T06:44:03.628Z,61.96
2022-08-03T06:44:52.308Z,63.15
2022-08-03T06:45:52.555Z,62.02
2022-08-03T06:46:52.306Z,61.03
2022-08-03T06:47:52.264Z,61.63
2022-08-03T06:48:52.453Z,59.01
2022-08-03T06:50:12.422Z,61.00
2022-08-03T06:50:52.243Z,60.11
2022-08-03T06:52:05.404Z,62.19
2022-08-03T06:52:52.225Z,59.91
2022-08-03T06:53:52.205Z,61.96
2022-08-03T06:54:52.199Z,58.98
2022-08-03T06:55:54.703Z,58.86
2022-08-03T06:56:52.207Z,60.14
2022-08-03T06:57:52.167Z,57.73
2022-08-03T06:58:52.158Z,59.62
2022-08-03T07:00:08.544Z,59.19
2022-08-03T07:00:52.143Z,59.79
2022-08-03T07:01:52.194Z,59.56
2022-08-03T07:02:57.684Z,58.15
2022-08-03T07:03:52.695Z,55.57
2022-08-03T07:04:52.113Z,57.45
2022-08-03T07:05:52.089Z,57.92
2022-08-03T07:06:52.149Z,57.32
2022-08-03T07:07:52.067Z,57.29
2022-08-03T07:08:55.442Z,56.01
2022-08-03T07:09:56.388Z,57.27
2022-08-03T07:10:52.043Z,56.68
2022-08-03T07:11:52.067Z,54.86
2022-08-03T07:12:55.785Z,54.57
2022-08-03T07:13:52.177Z,55.26
2022-08-03T07:14:54.570Z,52.29
2022-08-03T07:15:54.927Z,52.71
2022-08-03T07:16:52.001Z,54.20
2022-08-03T07:17:51.961Z,53.88
2022-08-03T07:18:51.957Z,52.98
2022-08-03T07:19:52.190Z,51.37
2022-08-03T07:20:51.936Z,51.50
2022-08-03T07:21:51.957Z,53.18
2022-08-03T07:22:51.923Z,52.96
2022-08-03T07:23:51.899Z,52.07
2022-08-03T07:24:51.895Z,52.93
2022-08-03T07:25:51.880Z,52.34
2022-08-03T07:26:51.898Z,52.31
2022-08-03T07:27:51.938Z,52.51
2022-08-03T07:28:51.872Z,50.21
2022-08-03T07:29:51.844Z,50.61
2022-08-03T07:30:51.835Z,51.99
2022-08-03T07:31:51.853Z,51.07
2022-08-03T07:32:51.819Z,50.59
2022-08-03T07:33:51.803Z,50.46
2022-08-03T07:34:53.102Z,49.08
2022-08-03T07:35:51.782Z,49.25
2022-08-03T07:36:51.801Z,49.45
2022-08-03T07:37:54.930Z,48.56
2022-08-03T07:38:51.756Z,49.25
2022-08-03T07:39:51.746Z,48.07
2022-08-03T07:40:51.735Z,47.77
2022-08-03T07:41:51.744Z,48.04
2022-08-03T07:42:53.245Z,47.35
2022-08-03T07:43:51.702Z,47.65
2022-08-03T07:44:51.697Z,46.88
2022-08-03T07:45:51.680Z,47.47
2022-08-03T07:46:51.708Z,47.28
2022-08-03T07:47:53.123Z,47.60
2022-08-03T07:48:51.655Z,48.19
2022-08-03T07:50:02.400Z,48.61
2022-08-03T07:50:51.634Z,48.41
2022-08-03T07:51:51.649Z,47.81
2022-08-03T07:52:51.624Z,49.48
2022-08-03T07:53:51.604Z,48.56
2022-08-03T07:54:51.597Z,49.05
2022-08-03T07:55:51.584Z,47.18
2022-08-03T07:56:51.609Z,46.29
2022-08-03T07:57:51.564Z,47.18
2022-08-03T07:58:51.557Z,47.55
2022-08-03T08:00:01.748Z,47.65
2022-08-03T08:00:51.612Z,47.33
2022-08-03T08:01:51.635Z,45.46
2022-08-03T08:02:51.529Z,46.15
2022-08-03T08:03:52.616Z,46.22
2022-08-03T08:04:51.496Z,47.11
2022-08-03T08:05:51.540Z,46.10
2022-08-03T08:06:51.478Z,44.92
2022-08-03T08:07:51.863Z,45.19
2022-08-03T08:08:51.460Z,46.37
2022-08-03T08:09:51.442Z,43.89
2022-08-03T08:10:58.546Z,44.88
2022-08-03T08:11:51.440Z,44.78
2022-08-03T08:12:51.420Z,44.98
2022-08-03T08:13:51.404Z,45.54
2022-08-03T08:14:51.400Z,44.76
2022-08-03T08:15:51.408Z,43.97
2022-08-03T08:16:51.387Z,44.46
2022-08-03T08:17:51.364Z,44.05
2022-08-03T08:18:51.361Z,44.34
2022-08-03T08:19:53.174Z,45.23
2022-08-03T08:20:51.364Z,44.91
2022-08-03T08:21:54.018Z,44.52
2022-08-03T08:22:51.326Z,44.62
2022-08-03T08:23:55.635Z,45.09
2022-08-03T08:24:51.305Z,44.40
2022-08-03T08:25:51.308Z,43.80
2022-08-03T08:26:51.280Z,44.47
2022-08-03T08:28:22.392Z,43.49
2022-08-03T08:28:51.266Z,43.29
2022-08-03T08:29:55.147Z,43.66
2022-08-03T08:30:51.305Z,43.47
2022-08-03T08:31:51.233Z,43.86
2022-08-03T08:32:51.223Z,43.86
2022-08-03T08:34:06.674Z,42.88
2022-08-03T08:34:51.210Z,42.58
2022-08-03T08:35:51.219Z,44.35
2022-08-03T08:36:51.189Z,44.26
2022-08-03T08:37:51.463Z,42.98
2022-08-03T08:38:51.164Z,42.37
2022-08-03T08:39:51.150Z,43.08
2022-08-03T08:40:51.172Z,43.47
2022-08-03T08:41:53.304Z,44.26
2022-08-03T08:42:58.388Z,43.96
2022-08-03T08:43:51.115Z,42.58
2022-08-03T08:44:51.111Z,44.43
2022-08-03T08:45:51.115Z,44.43
2022-08-03T08:46:51.095Z,44.43
2022-08-03T08:47:52.692Z,42.55
2022-08-03T08:48:51.068Z,43.55
2022-08-03T08:50:08.910Z,43.23
2022-08-03T08:50:51.056Z,43.55
2022-08-03T08:52:00.803Z,43.35
2022-08-03T08:52:51.036Z,43.18
2022-08-03T08:53:51.016Z,43.08
2022-08-03T08:54:51.038Z,44.26
2022-08-03T08:55:56.932Z,44.77
2022-08-03T08:56:50.994Z,45.36
2022-08-03T08:57:50.976Z,46.44
2022-08-03T08:58:50.969Z,45.26
2022-08-03T08:59:54.535Z,46.14
2022-08-03T09:00:51.024Z,46.04
2022-08-03T09:01:50.937Z,45.43
2022-08-03T09:02:50.932Z,45.43
2022-08-03T09:03:50.921Z,44.45
2022-08-03T09:04:50.939Z,44.27
2022-08-03T09:05:56.040Z,44.57
2022-08-03T09:07:17.748Z,44.96
2022-08-03T09:07:50.883Z,46.63
2022-08-03T09:08:50.875Z,45.95
2022-08-03T09:10:08.207Z,45.53
2022-08-03T09:10:50.857Z,45.04
2022-08-03T09:11:57.635Z,44.65
2022-08-03T09:12:50.839Z,46.59
2022-08-03T09:13:50.826Z,45.41
2022-08-03T09:15:14.745Z,43.82
2022-08-03T09:16:00.646Z,43.62
2022-08-03T09:16:51.622Z,43.62
2022-08-03T09:17:51.426Z,44.90
2022-08-03T09:18:50.776Z,42.05
2022-08-03T09:20:03.765Z,42.35
2022-08-03T09:20:50.759Z,42.05
2022-08-03T09:21:50.740Z,42.74
2022-08-03T09:22:50.733Z,43.15
2022-08-03T09:24:02.188Z,42.76
2022-08-03T09:25:03.296Z,45.70
2022-08-03T09:25:50.731Z,42.94
2022-08-03T09:26:51.933Z,42.94
2022-08-03T09:27:50.695Z,43.72
2022-08-03T09:29:01.755Z,42.23
2022-08-03T09:29:50.675Z,42.03
2022-08-03T09:30:50.694Z,42.94
2022-08-03T09:31:50.645Z,42.74
2022-08-03T09:32:50.676Z,43.62
2022-08-03T09:33:50.631Z,43.62
2022-08-03T09:34:51.814Z,42.84
2022-08-03T09:35:54.864Z,43.80
2022-08-03T09:36:50.660Z,42.62
2022-08-03T09:38:13.907Z,43.41
2022-08-03T09:38:50.694Z,42.02
2022-08-03T09:39:50.566Z,41.62
2022-08-03T09:40:50.587Z,43.38
2022-08-03T09:41:50.594Z,42.58
2022-08-03T09:42:50.541Z,43.07
2022-08-03T09:43:50.528Z,41.62
2022-08-03T09:44:50.521Z,41.62
2022-08-03T09:45:50.534Z,42.80
2022-08-03T09:46:50.501Z,44.56
2022-08-03T09:47:50.495Z,42.80
2022-08-03T09:48:50.479Z,42.11
2022-08-03T09:49:50.472Z,42.21
2022-08-03T09:50:58.459Z,42.50
2022-08-03T09:52:39.416Z,42.02
2022-08-03T09:52:54.883Z,42.58
2022-08-03T09:53:58.970Z,42.78
2022-08-03T09:54:50.426Z,42.76
2022-08-03T09:56:33.651Z,41.39
2022-08-03T09:56:50.405Z,41.39
2022-08-03T09:57:50.395Z,42.56
2022-08-03T09:58:50.379Z,41.17
2022-08-03T09:59:50.380Z,40.97
2022-08-03T10:00:50.404Z,42.25
2022-08-03T10:01:50.352Z,41.96
2022-08-03T10:02:50.339Z,41.54
2022-08-03T10:04:02.965Z,42.13
2022-08-03T10:04:50.333Z,41.82
2022-08-03T10:05:50.338Z,39.55
2022-08-03T10:06:50.304Z,39.45
2022-08-03T10:07:50.295Z,39.65
2022-08-03T10:08:50.290Z,39.36
2022-08-03T10:09:50.283Z,40.43
2022-08-03T10:10:50.283Z,38.28
2022-08-03T10:11:50.256Z,40.72
2022-08-03T10:12:50.242Z,40.50
2022-08-03T10:13:50.235Z,38.94
2022-08-03T10:14:50.237Z,37.96
2022-08-03T10:16:23.005Z,38.28
2022-08-03T10:16:50.217Z,38.77
2022-08-03T10:17:50.211Z,39.45
2022-08-03T10:18:50.184Z,39.08
2022-08-03T10:19:50.178Z,39.47
2022-08-03T10:20:50.192Z,39.47
2022-08-03T10:21:50.166Z,38.79
2022-08-03T10:22:50.141Z,38.98
2022-08-03T10:23:50.138Z,38.79
2022-08-03T10:24:50.122Z,39.57
2022-08-03T10:25:50.141Z,39.37
2022-08-03T10:26:50.385Z,38.69
2022-08-03T10:27:50.096Z,38.32
2022-08-03T10:28:50.080Z,39.59
2022-08-03T10:29:50.077Z,40.37
2022-08-03T10:30:50.084Z,38.69
2022-08-03T10:31:57.248Z,38.81
2022-08-03T10:32:50.053Z,38.42
2022-08-03T10:33:52.893Z,39.20
2022-08-03T10:34:50.022Z,38.42
2022-08-03T10:35:50.044Z,38.34
2022-08-03T10:36:50.010Z,38.04
2022-08-03T10:37:56.875Z,37.95
2022-08-03T10:38:49.988Z,37.35
2022-08-03T10:39:49.979Z,38.94
2022-08-03T10:40:52.615Z,40.21
2022-08-03T10:41:49.959Z,38.82
2022-08-03T10:42:50.205Z,38.63
2022-08-03T10:43:49.936Z,38.92
2022-08-03T10:44:49.941Z,37.73
2022-08-03T10:45:49.940Z,38.81
2022-08-03T10:46:49.903Z,38.02
2022-08-03T10:47:49.899Z,38.49
2022-08-03T10:48:49.885Z,37.62
2022-08-03T10:49:49.971Z,38.18
2022-08-03T10:50:49.892Z,36.72
2022-08-03T10:51:54.325Z,37.01
2022-08-03T10:52:49.872Z,36.91
2022-08-03T10:53:54.571Z,37.11
2022-08-03T10:54:49.833Z,37.21
2022-08-03T10:55:49.857Z,36.13
2022-08-03T10:56:50.376Z,37.60
2022-08-03T10:57:50.095Z,36.43
2022-08-03T10:58:56.913Z,37.60
2022-08-03T10:59:49.787Z,38.45
2022-08-03T11:00:49.874Z,35.53
2022-08-03T11:01:59.262Z,37.19
2022-08-03T11:02:49.758Z,37.29
2022-08-03T11:03:49.745Z,36.60
2022-08-03T11:04:49.729Z,36.78
2022-08-03T11:05:49.755Z,36.88
2022-08-03T11:06:49.711Z,36.21
2022-08-03T11:07:53.084Z,35.72
2022-08-03T11:08:49.696Z,36.99
2022-08-03T11:09:49.691Z,36.70
2022-08-03T11:10:49.703Z,37.27
2022-08-03T11:11:49.666Z,35.80
2022-08-03T11:12:49.656Z,36.49
2022-08-03T11:13:49.650Z,38.32
2022-08-03T11:14:49.634Z,37.05
2022-08-03T11:15:49.668Z,35.67
2022-08-03T11:16:49.617Z,35.78
2022-08-03T11:17:56.043Z,36.65
2022-08-03T11:18:49.670Z,35.18
2022-08-03T11:19:56.486Z,35.86
2022-08-03T11:20:49.618Z,35.67
2022-08-03T11:21:49.574Z,36.53
2022-08-03T11:22:49.559Z,36.63
2022-08-03T11:24:03.509Z,36.80
2022-08-03T11:24:49.566Z,35.46
2022-08-03T11:25:54.566Z,35.65
2022-08-03T11:26:49.710Z,35.47
2022-08-03T11:27:50.201Z,35.46
2022-08-03T11:28:49.502Z,35.16
2022-08-03T11:29:49.503Z,34.68
2022-08-03T11:30:49.520Z,33.80
2022-08-03T11:31:50.936Z,35.36
2022-08-03T11:32:49.467Z,35.34
2022-08-03T11:33:49.462Z,35.05
2022-08-03T11:34:49.444Z,34.76
2022-08-03T11:35:49.478Z,33.49
2022-08-03T11:36:49.426Z,34.37
2022-08-03T11:38:03.406Z,34.16
2022-08-03T11:38:49.412Z,35.03
2022-08-03T11:39:49.406Z,33.48
2022-08-03T11:40:49.416Z,33.28
2022-08-03T11:41:49.385Z,33.29
2022-08-03T11:42:49.522Z,34.00
2022-08-03T11:43:49.371Z,34.19
2022-08-03T11:44:49.355Z,34.21
2022-08-03T11:45:49.398Z,34.21
2022-08-03T11:46:49.336Z,34.21
2022-08-03T11:47:50.930Z,34.99
2022-08-03T11:48:49.312Z,36.55
2022-08-03T11:49:49.321Z,34.99
2022-08-03T11:50:49.326Z,33.51
2022-08-03T11:51:49.291Z,33.80
2022-08-03T11:52:49.282Z,33.41
2022-08-03T11:53:49.399Z,33.90
2022-08-03T11:54:49.258Z,33.78
2022-08-03T11:55:49.284Z,33.49
2022-08-03T11:56:49.242Z,32.91
2022-08-03T11:59:16.666Z,33.12
2022-08-03T11:59:24.341Z,33.22
2022-08-03T11:59:49.260Z,33.80
2022-08-03T12:00:49.229Z,34.88
2022-08-03T12:01:49.331Z,34.00
2022-08-03T12:02:49.234Z,34.27
2022-08-03T12:03:49.179Z,35.34
2022-08-03T12:04:49.173Z,34.84
2022-08-03T12:05:52.117Z,33.58
2022-08-03T12:06:49.150Z,31.73
2022-08-03T12:08:04.759Z,32.31
2022-08-03T12:08:49.135Z,32.31
2022-08-03T12:09:49.134Z,32.02
2022-08-03T12:10:49.174Z,32.68
2022-08-03T12:11:59.887Z,32.20
2022-08-03T12:12:49.102Z,31.51
2022-08-03T12:14:44.892Z,31.51
2022-08-03T12:14:56.066Z,32.39
2022-08-03T12:15:49.162Z,32.39
2022-08-03T12:16:49.118Z,31.71
2022-08-03T12:17:49.056Z,31.90
2022-08-03T12:18:49.041Z,32.59
2022-08-03T12:19:49.055Z,33.07
2022-08-03T12:20:49.054Z,31.51
2022-08-03T12:21:56.695Z,32.20
2022-08-03T12:22:49.014Z,31.03
2022-08-03T12:23:49.008Z,31.90
2022-08-03T12:24:48.996Z,32.10
2022-08-03T12:25:49.836Z,31.03
2022-08-03T12:26:58.162Z,30.54
2022-08-03T12:27:48.988Z,30.93
2022-08-03T12:28:50.001Z,30.54
2022-08-03T12:29:57.305Z,31.22
2022-08-03T12:30:48.984Z,31.30
2022-08-03T12:31:48.938Z,32.76
2022-08-03T12:32:48.955Z,32.26
2022-08-03T12:33:48.926Z,31.18
2022-08-03T12:34:48.918Z,30.69
2022-08-03T12:35:52.112Z,31.27
2022-08-03T12:36:48.899Z,32.04
2022-08-03T12:37:48.911Z,30.30
2022-08-03T12:38:48.993Z,31.94
2022-08-03T12:40:01.377Z,31.84
2022-08-03T12:40:48.916Z,29.50
2022-08-03T12:41:48.865Z,29.11
2022-08-03T12:42:48.851Z,30.37
2022-08-03T12:43:48.848Z,28.90
2022-08-03T12:44:48.931Z,29.68
2022-08-03T12:45:49.413Z,29.19
2022-08-03T12:46:48.821Z,29.38
2022-08-03T12:47:48.818Z,29.87
2022-08-03T12:48:49.418Z,29.30
2022-08-03T12:49:48.803Z,29.60
2022-08-03T12:50:53.556Z,30.16
2022-08-03T12:51:48.791Z,31.23
2022-08-03T12:52:48.773Z,29.27